Opwijk, Belgium
Current Conditions -  °F | °C
As of 11:50 PM on Saturday 25 Oct 2014 (Local Time) from EBBR Reporting Station
Broken Clouds Broken Clouds  
Wind Chill: 52°   Ceiling: 4200
Heat Index: 52°   Visibility: 6mi
Dew Point: 48°   Wind: 5mph
Humidity: 88%   Direction: 220°SW
Pressure: 30.21"   Gusts: NA
Location:  50.97°N, 4.18°E
Report Text: EBBR 252150Z 22004KT 9999 FEW034 BKN042 11/09 Q1023 NOSIG
Loading
Personal Weather Stations






























Interactive Weather Map
Tropical Storm Tracking
New forecast layout! Learn more

10-Day Weather Forecast

Advertisements
Track Severe Weather on mobile